sensor_id;sensor_type;location;lat;lon;timestamp;pressure;altitude;pressure_sealevel;temperature;humidity
72560;BME280;62987;52.382;9.752;2024-02-15T00:00:53;100927.06;;;13.95;100.00
72560;BME280;62987;52.382;9.752;2024-02-15T00:03:23;100919.13;;;13.77;100.00
72560;BME280;62987;52.382;9.752;2024-02-15T00:05:51;100912.06;;;13.58;100.00
72560;BME280;62987;52.382;9.752;2024-02-15T00:08:21;100914.66;;;13.77;100.00
72560;BME280;62987;52.382;9.752;2024-02-15T00:10:49;100911.72;;;13.82;100.00
72560;BME280;62987;52.382;9.752;2024-02-15T00:13:18;100916.31;;;13.80;100.00
72560;BME280;62987;52.382;9.752;2024-02-15T00:15:49;100908.59;;;13.91;100.00
72560;BME280;62987;52.382;9.752;2024-02-15T00:18:19;100917.97;;;13.65;100.00
72560;BME280;62987;52.382;9.752;2024-02-15T00:20:50;100910.03;;;13.64;100.00
72560;BME280;62987;52.382;9.752;2024-02-15T00:23:19;100914.63;;;13.94;100.00
72560;BME280;62987;52.382;9.752;2024-02-15T00:25:48;100923.63;;;13.93;100.00
72560;BME280;62987;52.382;9.752;2024-02-15T00:28:17;100922.53;;;13.80;100.00
72560;BME280;62987;52.382;9.752;2024-02-15T00:30:45;100915.19;;;13.84;100.00
72560;BME280;62987;52.382;9.752;2024-02-15T00:33:14;100913.22;;;13.87;100.00
72560;BME280;62987;52.382;9.752;2024-02-15T00:35:44;100918.50;;;13.72;100.00
72560;BME280;62987;52.382;9.752;2024-02-15T00:38:13;100917.66;;;13.71;100.00
72560;BME280;62987;52.382;9.752;2024-02-15T00:40:41;100914.41;;;13.82;100.00
72560;BME280;62987;52.382;9.752;2024-02-15T00:43:10;100914.94;;;13.88;100.00
72560;BME280;62987;52.382;9.752;2024-02-15T00:45:39;100926.16;;;13.79;100.00
72560;BME280;62987;52.382;9.752;2024-02-15T00:48:08;100913.91;;;14.08;100.00
72560;BME280;62987;52.382;9.752;2024-02-15T00:50:37;100923.63;;;13.76;100.00
72560;BME280;62987;52.382;9.752;2024-02-15T00:53:06;100926.53;;;14.22;100.00
72560;BME280;62987;52.382;9.752;2024-02-15T00:55:36;100924.72;;;13.89;100.00
72560;BME280;62987;52.382;9.752;2024-02-15T00:58:04;100931.81;;;14.23;100.00
72560;BME280;62987;52.382;9.752;2024-02-15T01:00:32;100927.59;;;14.02;100.00
72560;BME280;62987;52.382;9.752;2024-02-15T01:03:01;100931.69;;;14.09;100.00
72560;BME280;62987;52.382;9.752;2024-02-15T01:05:30;100933.69;;;14.06;100.00
72560;BME280;62987;52.382;9.752;2024-02-15T01:07:59;100936.78;;;14.14;100.00
72560;BME280;62987;52.382;9.752;2024-02-15T01:10:28;100937.75;;;13.95;100.00
72560;BME280;62987;52.382;9.752;2024-02-15T01:12:57;100941.13;;;14.16;100.00
72560;BME280;62987;52.382;9.752;2024-02-15T01:15:26;100938.84;;;14.09;100.00
72560;BME280;62987;52.382;9.752;2024-02-15T01:17:54;100945.28;;;14.22;100.00
72560;BME280;62987;52.382;9.752;2024-02-15T01:20:23;100939.72;;;14.09;100.00
72560;BME280;62987;52.382;9.752;2024-02-15T01:22:52;100941.06;;;14.00;100.00
72560;BME280;62987;52.382;9.752;2024-02-15T01:25:20;100939.25;;;14.01;100.00
72560;BME280;62987;52.382;9.752;2024-02-15T01:27:48;100936.34;;;14.06;100.00
72560;BME280;62987;52.382;9.752;2024-02-15T01:30:19;100935.34;;;13.91;100.00
72560;BME280;62987;52.382;9.752;2024-02-15T01:32:48;100932.41;;;13.95;100.00
72560;BME280;62987;52.382;9.752;2024-02-15T01:35:17;100935.25;;;13.92;100.00
72560;BME280;62987;52.382;9.752;2024-02-15T01:37:45;100935.16;;;13.94;100.00
72560;BME280;62987;52.382;9.752;2024-02-15T01:40:15;100923.03;;;14.04;100.00
72560;BME280;62987;52.382;9.752;2024-02-15T01:42:45;100928.97;;;13.93;100.00
72560;BME280;62987;52.382;9.752;2024-02-15T01:45:14;100929.56;;;14.16;100.00
72560;BME280;62987;52.382;9.752;2024-02-15T01:47:44;100920.78;;;13.96;100.00
72560;BME280;62987;52.382;9.752;2024-02-15T01:50:13;100917.84;;;14.18;100.00
72560;BME280;62987;52.382;9.752;2024-02-15T01:52:43;100916.69;;;13.89;100.00
72560;BME280;62987;52.382;9.752;2024-02-15T01:55:15;100915.09;;;14.02;100.00
72560;BME280;62987;52.382;9.752;2024-02-15T01:57:45;100914.28;;;14.18;100.00
72560;BME280;62987;52.382;9.752;2024-02-15T02:00:15;100911.53;;;13.86;100.00
72560;BME280;62987;52.382;9.752;2024-02-15T02:02:53;100910.25;;;13.93;100.00
72560;BME280;62987;52.382;9.752;2024-02-15T02:05:27;100911.00;;;13.95;100.00
72560;BME280;62987;52.382;9.752;2024-02-15T02:07:57;100916.13;;;13.83;100.00
72560;BME280;62987;52.382;9.752;2024-02-15T02:10:29;100917.19;;;13.80;100.00
72560;BME280;62987;52.382;9.752;2024-02-15T02:13:00;100908.66;;;13.89;100.00
72560;BME280;62987;52.382;9.752;2024-02-15T02:15:31;100912.13;;;13.74;100.00
72560;BME280;62987;52.382;9.752;2024-02-15T02:18:01;100915.28;;;13.65;100.00
72560;BME280;62987;52.382;9.752;2024-02-15T02:20:30;100910.72;;;13.84;100.00
72560;BME280;62987;52.382;9.752;2024-02-15T02:23:03;100906.50;;;13.80;100.00
72560;BME280;62987;52.382;9.752;2024-02-15T02:25:36;100904.91;;;13.76;100.00
72560;BME280;62987;52.382;9.752;2024-02-15T02:28:06;100909.31;;;13.77;100.00
72560;BME280;62987;52.382;9.752;2024-02-15T02:30:36;100911.28;;;13.74;100.00
72560;BME280;62987;52.382;9.752;2024-02-15T02:33:11;100910.44;;;13.73;100.00
72560;BME280;62987;52.382;9.752;2024-02-15T02:35:47;100912.31;;;13.54;100.00
72560;BME280;62987;52.382;9.752;2024-02-15T02:38:16;100909.94;;;13.82;100.00
72560;BME280;62987;52.382;9.752;2024-02-15T02:40:48;100920.81;;;13.79;100.00
72560;BME280;62987;52.382;9.752;2024-02-15T02:43:17;100918.91;;;13.98;100.00
72560;BME280;62987;52.382;9.752;2024-02-15T02:45:46;100916.72;;;13.72;100.00
72560;BME280;62987;52.382;9.752;2024-02-15T02:48:14;100916.72;;;13.72;100.00
72560;BME280;62987;52.382;9.752;2024-02-15T02:50:44;100919.63;;;13.85;100.00
72560;BME280;62987;52.382;9.752;2024-02-15T02:53:13;100914.41;;;13.99;100.00
72560;BME280;62987;52.382;9.752;2024-02-15T02:55:42;100913.47;;;13.83;100.00
72560;BME280;62987;52.382;9.752;2024-02-15T02:58:12;100902.75;;;14.00;100.00
72560;BME280;62987;52.382;9.752;2024-02-15T03:00:40;100904.66;;;13.81;100.00
72560;BME280;62987;52.382;9.752;2024-02-15T03:03:09;100901.38;;;13.93;100.00
72560;BME280;62987;52.382;9.752;2024-02-15T03:05:38;100905.00;;;14.08;100.00
72560;BME280;62987;52.382;9.752;2024-02-15T03:08:08;100900.59;;;14.07;100.00
72560;BME280;62987;52.382;9.752;2024-02-15T03:10:37;100907.00;;;14.37;100.00
72560;BME280;62987;52.382;9.752;2024-02-15T03:13:05;100910.53;;;14.05;100.00
72560;BME280;62987;52.382;9.752;2024-02-15T03:15:37;100914.78;;;14.09;100.00
72560;BME280;62987;52.382;9.752;2024-02-15T03:18:06;100913.50;;;14.16;100.00
72560;BME280;62987;52.382;9.752;2024-02-15T03:20:37;100909.22;;;14.29;100.00
72560;BME280;62987;52.382;9.752;2024-02-15T03:23:06;100907.81;;;14.22;100.00
72560;BME280;62987;52.382;9.752;2024-02-15T03:25:34;100916.47;;;14.27;100.00
72560;BME280;62987;52.382;9.752;2024-02-15T03:28:03;100912.50;;;14.34;100.00
72560;BME280;62987;52.382;9.752;2024-02-15T03:30:32;100918.09;;;13.96;100.00
72560;BME280;62987;52.382;9.752;2024-02-15T03:33:03;100915.44;;;13.79;100.00
72560;BME280;62987;52.382;9.752;2024-02-15T03:35:34;100913.38;;;14.01;100.00
72560;BME280;62987;52.382;9.752;2024-02-15T03:38:05;100917.44;;;14.09;100.00
72560;BME280;62987;52.382;9.752;2024-02-15T03:40:34;100914.03;;;14.22;100.00
72560;BME280;62987;52.382;9.752;2024-02-15T03:43:04;100910.34;;;14.25;100.00
72560;BME280;62987;52.382;9.752;2024-02-15T03:45:34;100915.09;;;14.02;100.00
72560;BME280;62987;52.382;9.752;2024-02-15T03:48:04;100919.66;;;14.18;100.00
72560;BME280;62987;52.382;9.752;2024-02-15T03:50:34;100918.84;;;14.16;100.00
72560;BME280;62987;52.382;9.752;2024-02-15T03:53:03;100925.47;;;14.26;100.00
72560;BME280;62987;52.382;9.752;2024-02-15T03:55:35;100927.13;;;13.94;100.00
72560;BME280;62987;52.382;9.752;2024-02-15T03:58:03;100930.81;;;14.09;100.00
72560;BME280;62987;52.382;9.752;2024-02-15T04:00:32;100930.63;;;14.29;100.00
72560;BME280;62987;52.382;9.752;2024-02-15T04:03:01;100933.97;;;14.17;100.00
72560;BME280;62987;52.382;9.752;2024-02-15T04:05:31;100929.41;;;14.19;100.00
72560;BME280;62987;52.382;9.752;2024-02-15T04:08:00;100929.41;;;14.19;100.00
72560;BME280;62987;52.382;9.752;2024-02-15T04:10:30;100937.00;;;14.26;100.00
72560;BME280;62987;52.382;9.752;2024-02-15T04:13:02;100940.59;;;14.10;100.00
72560;BME280;62987;52.382;9.752;2024-02-15T04:15:31;100933.34;;;14.12;100.00
72560;BME280;62987;52.382;9.752;2024-02-15T04:18:00;100940.44;;;13.95;100.00
72560;BME280;62987;52.382;9.752;2024-02-15T04:20:30;100940.72;;;14.07;100.00
72560;BME280;62987;52.382;9.752;2024-02-15T04:22:59;100927.84;;;13.97;100.00
72560;BME280;62987;52.382;9.752;2024-02-15T04:25:27;100933.50;;;14.09;100.00
72560;BME280;62987;52.382;9.752;2024-02-15T04:27:56;100935.56;;;14.04;100.00
72560;BME280;62987;52.382;9.752;2024-02-15T04:30:31;100936.38;;;14.21;100.00
72560;BME280;62987;52.382;9.752;2024-02-15T04:33:02;100934.91;;;14.16;100.00
72560;BME280;62987;52.382;9.752;2024-02-15T04:35:34;100933.78;;;14.20;100.00
72560;BME280;62987;52.382;9.752;2024-02-15T04:38:03;100936.78;;;14.14;100.00
72560;BME280;62987;52.382;9.752;2024-02-15T04:40:31;100941.50;;;14.26;100.00
72560;BME280;62987;52.382;9.752;2024-02-15T04:43:00;100943.84;;;14.32;100.00
72560;BME280;62987;52.382;9.752;2024-02-15T04:45:31;100946.63;;;14.13;100.00
72560;BME280;62987;52.382;9.752;2024-02-15T04:48:05;100948.56;;;14.27;100.00
72560;BME280;62987;52.382;9.752;2024-02-15T04:50:35;100947.94;;;14.22;100.00
72560;BME280;62987;52.382;9.752;2024-02-15T04:53:04;100948.22;;;14.17;100.00
72560;BME280;62987;52.382;9.752;2024-02-15T04:55:34;100948.75;;;14.24;100.00
72560;BME280;62987;52.382;9.752;2024-02-15T04:58:04;100940.88;;;14.38;100.00
72560;BME280;62987;52.382;9.752;2024-02-15T05:00:32;100930.28;;;14.19;100.00
72560;BME280;62987;52.382;9.752;2024-02-15T05:03:01;100930.41;;;14.16;100.00
72560;BME280;62987;52.382;9.752;2024-02-15T05:05:30;100940.03;;;14.53;100.00
72560;BME280;62987;52.382;9.752;2024-02-15T05:07:59;100947.22;;;14.35;100.00
72560;BME280;62987;52.382;9.752;2024-02-15T05:10:29;100945.13;;;14.25;100.00
72560;BME280;62987;52.382;9.752;2024-02-15T05:12:57;100950.34;;;14.11;100.00
72560;BME280;62987;52.382;9.752;2024-02-15T05:15:28;100955.97;;;14.22;100.00
72560;BME280;62987;52.382;9.752;2024-02-15T05:17:58;100950.09;;;14.15;100.00
72560;BME280;62987;52.382;9.752;2024-02-15T05:20:28;100954.63;;;14.30;100.00
72560;BME280;62987;52.382;9.752;2024-02-15T05:22:57;100943.53;;;14.21;100.00
72560;BME280;62987;52.382;9.752;2024-02-15T05:25:27;100949.53;;;14.09;100.00
72560;BME280;62987;52.382;9.752;2024-02-15T05:27:57;100947.16;;;14.20;100.00
72560;BME280;62987;52.382;9.752;2024-02-15T05:30:25;100945.25;;;14.06;100.00
72560;BME280;62987;52.382;9.752;2024-02-15T05:32:54;100936.38;;;14.21;100.00
72560;BME280;62987;52.382;9.752;2024-02-15T05:35:24;100934.75;;;14.19;100.00
72560;BME280;62987;52.382;9.752;2024-02-15T05:37:57;100935.91;;;14.13;100.00
72560;BME280;62987;52.382;9.752;2024-02-15T05:40:27;100931.44;;;14.14;100.00
72560;BME280;62987;52.382;9.752;2024-02-15T05:42:55;100935.09;;;14.13;100.00
72560;BME280;62987;52.382;9.752;2024-02-15T05:45:30;100937.25;;;14.22;100.00
72560;BME280;62987;52.382;9.752;2024-02-15T05:48:03;100929.94;;;14.25;100.00
72560;BME280;62987;52.382;9.752;2024-02-15T05:50:34;100934.63;;;14.05;100.00
72560;BME280;62987;52.382;9.752;2024-02-15T05:53:03;100933.91;;;14.34;100.00
72560;BME280;62987;52.382;9.752;2024-02-15T05:55:33;100934.91;;;14.16;100.00
72560;BME280;62987;52.382;9.752;2024-02-15T05:58:03;100937.03;;;14.09;100.00
72560;BME280;62987;52.382;9.752;2024-02-15T06:00:35;100935.84;;;14.15;100.00
72560;BME280;62987;52.382;9.752;2024-02-15T06:03:10;100940.66;;;14.25;100.00
72560;BME280;62987;52.382;9.752;2024-02-15T06:05:39;100940.31;;;14.14;100.00
72560;BME280;62987;52.382;9.752;2024-02-15T06:08:09;100937.72;;;14.30;100.00
72560;BME280;62987;52.382;9.752;2024-02-15T06:10:40;100944.41;;;14.21;100.00
72560;BME280;62987;52.382;9.752;2024-02-15T06:13:09;100938.41;;;14.33;100.00
72560;BME280;62987;52.382;9.752;2024-02-15T06:15:38;100935.94;;;14.46;100.00
72560;BME280;62987;52.382;9.752;2024-02-15T06:18:06;100933.03;;;14.33;100.00
72560;BME280;62987;52.382;9.752;2024-02-15T06:20:37;100944.53;;;14.35;100.00
72560;BME280;62987;52.382;9.752;2024-02-15T06:23:06;100943.97;;;14.46;100.00
72560;BME280;62987;52.382;9.752;2024-02-15T06:25:35;100937.22;;;14.39;100.00
72560;BME280;62987;52.382;9.752;2024-02-15T06:28:05;100942.69;;;14.37;100.00
72560;BME280;62987;52.382;9.752;2024-02-15T06:30:47;100932.03;;;14.36;100.00
72560;BME280;62987;52.382;9.752;2024-02-15T06:33:32;100944.63;;;14.34;100.00
72560;BME280;62987;52.382;9.752;2024-02-15T06:36:18;100947.97;;;13.87;100.00
72560;BME280;62987;52.382;9.752;2024-02-15T06:39:04;100949.22;;;14.15;100.00
72560;BME280;62987;52.382;9.752;2024-02-15T06:41:50;100952.69;;;14.17;100.00
72560;BME280;62987;52.382;9.752;2024-02-15T06:44:20;100952.06;;;14.12;100.00
72560;BME280;62987;52.382;9.752;2024-02-15T06:46:51;100959.81;;;14.33;100.00
72560;BME280;62987;52.382;9.752;2024-02-15T06:49:35;100958.94;;;14.33;100.00
72560;BME280;62987;52.382;9.752;2024-02-15T06:52:04;100953.78;;;14.30;100.00
72560;BME280;62987;52.382;9.752;2024-02-15T06:54:34;100956.53;;;14.28;100.00
72560;BME280;62987;52.382;9.752;2024-02-15T06:57:04;100952.91;;;14.29;100.00
72560;BME280;62987;52.382;9.752;2024-02-15T06:59:33;100951.41;;;14.41;100.00
72560;BME280;62987;52.382;9.752;2024-02-15T07:02:02;100951.06;;;14.47;100.00
72560;BME280;62987;52.382;9.752;2024-02-15T07:04:32;100944.84;;;14.47;100.00
72560;BME280;62987;52.382;9.752;2024-02-15T07:09:04;100954.53;;;14.49;100.00
72560;BME280;62987;52.382;9.752;2024-02-15T07:11:34;100952.19;;;14.43;100.00
72560;BME280;62987;52.382;9.752;2024-02-15T07:14:02;100944.31;;;14.40;100.00
72560;BME280;62987;52.382;9.752;2024-02-15T07:16:34;100943.06;;;14.30;100.00
72560;BME280;62987;52.382;9.752;2024-02-15T07:19:05;100944.19;;;14.09;100.00
72560;BME280;62987;52.382;9.752;2024-02-15T07:21:36;100951.91;;;14.15;100.00
72560;BME280;62987;52.382;9.752;2024-02-15T07:24:07;100954.75;;;14.12;100.00
72560;BME280;62987;52.382;9.752;2024-02-15T07:26:36;100942.56;;;14.06;100.00
72560;BME280;62987;52.382;9.752;2024-02-15T07:29:05;100942.13;;;14.14;100.00
72560;BME280;62987;52.382;9.752;2024-02-15T07:31:36;100933.97;;;14.17;100.00
72560;BME280;62987;52.382;9.752;2024-02-15T07:34:06;100935.56;;;14.04;100.00
72560;BME280;62987;52.382;9.752;2024-02-15T07:36:34;100946.41;;;14.18;100.00
72560;BME280;62987;52.382;9.752;2024-02-15T07:39:03;100944.09;;;14.27;100.00
72560;BME280;62987;52.382;9.752;2024-02-15T07:41:33;100946.25;;;14.04;100.00
72560;BME280;62987;52.382;9.752;2024-02-15T07:44:02;100950.75;;;14.36;100.00
72560;BME280;62987;52.382;9.752;2024-02-15T07:46:30;100944.28;;;13.90;100.00
72560;BME280;62987;52.382;9.752;2024-02-15T07:48:59;100939.53;;;14.29;100.00
72560;BME280;62987;52.382;9.752;2024-02-15T07:51:29;100945.88;;;14.27;100.00
72560;BME280;62987;52.382;9.752;2024-02-15T07:53:57;100947.13;;;14.54;100.00
72560;BME280;62987;52.382;9.752;2024-02-15T07:56:26;100947.44;;;14.48;100.00
72560;BME280;62987;52.382;9.752;2024-02-15T07:58:56;100950.91;;;14.33;100.00
72560;BME280;62987;52.382;9.752;2024-02-15T08:01:25;100950.75;;;14.53;100.00
72560;BME280;62987;52.382;9.752;2024-02-15T08:03:54;100946.34;;;14.35;100.00
72560;BME280;62987;52.382;9.752;2024-02-15T08:06:23;100934.78;;;14.34;100.00
72560;BME280;62987;52.382;9.752;2024-02-15T08:08:56;100936.25;;;14.57;100.00
72560;BME280;62987;52.382;9.752;2024-02-15T08:11:25;100932.09;;;14.67;100.00
72560;BME280;62987;52.382;9.752;2024-02-15T08:13:54;100934.47;;;14.40;100.00
72560;BME280;62987;52.382;9.752;2024-02-15T08:16:27;100930.25;;;14.52;100.00
72560;BME280;62987;52.382;9.752;2024-02-15T08:18:56;100947.28;;;14.34;100.00
72560;BME280;62987;52.382;9.752;2024-02-15T08:21:25;100948.03;;;14.20;100.00
72560;BME280;62987;52.382;9.752;2024-02-15T08:23:56;100947.47;;;14.14;100.00
72560;BME280;62987;52.382;9.752;2024-02-15T08:26:25;100944.53;;;14.35;100.00
72560;BME280;62987;52.382;9.752;2024-02-15T08:28:54;100943.00;;;14.14;100.00
72560;BME280;62987;52.382;9.752;2024-02-15T08:31:23;100940.13;;;14.34;100.00
72560;BME280;62987;52.382;9.752;2024-02-15T08:33:53;100931.06;;;14.86;100.00
72560;BME280;62987;52.382;9.752;2024-02-15T08:36:22;100931.44;;;14.95;100.00
72560;BME280;62987;52.382;9.752;2024-02-15T08:38:50;100927.69;;;15.29;100.00
72560;BME280;62987;52.382;9.752;2024-02-15T08:41:19;100930.13;;;15.18;100.00
72560;BME280;62987;52.382;9.752;2024-02-15T08:43:50;100925.69;;;15.33;100.00
72560;BME280;62987;52.382;9.752;2024-02-15T08:46:19;100912.97;;;15.36;100.00
72560;BME280;62987;52.382;9.752;2024-02-15T08:48:48;100922.28;;;14.99;100.00
72560;BME280;62987;52.382;9.752;2024-02-15T08:51:18;100914.16;;;15.01;100.00
72560;BME280;62987;52.382;9.752;2024-02-15T08:53:51;100922.44;;;15.12;100.00
72560;BME280;62987;52.382;9.752;2024-02-15T08:56:20;100918.88;;;15.27;100.00
72560;BME280;62987;52.382;9.752;2024-02-15T08:58:50;100918.06;;;15.56;100.00
72560;BME280;62987;52.382;9.752;2024-02-15T09:01:18;100921.56;;;15.11;100.00
72560;BME280;62987;52.382;9.752;2024-02-15T09:03:47;100918.44;;;15.19;100.00
72560;BME280;62987;52.382;9.752;2024-02-15T09:06:17;100922.06;;;15.34;100.00
72560;BME280;62987;52.382;9.752;2024-02-15T09:08:46;100926.91;;;15.27;100.00
72560;BME280;62987;52.382;9.752;2024-02-15T09:11:15;100921.38;;;15.30;100.00
72560;BME280;62987;52.382;9.752;2024-02-15T09:13:44;100920.56;;;15.59;100.00
72560;BME280;62987;52.382;9.752;2024-02-15T09:16:12;100916.16;;;15.43;100.00
72560;BME280;62987;52.382;9.752;2024-02-15T09:18:41;100911.84;;;15.40;100.00
72560;BME280;62987;52.382;9.752;2024-02-15T09:21:13;100911.66;;;15.43;100.00
72560;BME280;62987;52.382;9.752;2024-02-15T09:23:43;100907.53;;;15.53;100.00
72560;BME280;62987;52.382;9.752;2024-02-15T09:26:12;100905.13;;;15.33;100.00
72560;BME280;62987;52.382;9.752;2024-02-15T09:28:41;100906.13;;;15.46;100.00
72560;BME280;62987;52.382;9.752;2024-02-15T09:31:12;100907.84;;;15.47;100.00
72560;BME280;62987;52.382;9.752;2024-02-15T09:33:42;100913.78;;;15.23;100.00
72560;BME280;62987;52.382;9.752;2024-02-15T09:36:12;100908.59;;;15.49;100.00
72560;BME280;62987;52.382;9.752;2024-02-15T09:38:42;100911.03;;;15.08;100.00
72560;BME280;62987;52.382;9.752;2024-02-15T09:41:11;100893.56;;;15.17;100.00
72560;BME280;62987;52.382;9.752;2024-02-15T09:43:39;100907.94;;;15.76;100.00
72560;BME280;62987;52.382;9.752;2024-02-15T09:46:08;100906.25;;;15.75;100.00
72560;BME280;62987;52.382;9.752;2024-02-15T09:48:37;100905.34;;;15.44;100.00
72560;BME280;62987;52.382;9.752;2024-02-15T09:51:09;100906.78;;;15.66;100.00
72560;BME280;62987;52.382;9.752;2024-02-15T09:53:40;100902.44;;;15.33;100.00
72560;BME280;62987;52.382;9.752;2024-02-15T09:56:11;100915.19;;;15.44;100.00
72560;BME280;62987;52.382;9.752;2024-02-15T09:58:41;100917.56;;;15.34;100.00
72560;BME280;62987;52.382;9.752;2024-02-15T10:01:10;100917.88;;;15.59;100.00
72560;BME280;62987;52.382;9.752;2024-02-15T10:03:41;100920.47;;;15.45;100.00
72560;BME280;62987;52.382;9.752;2024-02-15T10:06:09;100924.56;;;15.52;100.00
72560;BME280;62987;52.382;9.752;2024-02-15T10:08:38;100923.09;;;15.31;100.00
72560;BME280;62987;52.382;9.752;2024-02-15T10:11:09;100926.72;;;15.30;100.00
72560;BME280;62987;52.382;9.752;2024-02-15T10:13:38;100926.88;;;15.58;100.00
72560;BME280;62987;52.382;9.752;2024-02-15T10:16:15;100930.59;;;15.56;100.00
72560;BME280;62987;52.382;9.752;2024-02-15T10:18:44;100932.22;;;15.43;100.00
72560;BME280;62987;52.382;9.752;2024-02-15T10:21:24;100937.50;;;15.44;100.00
72560;BME280;62987;52.382;9.752;2024-02-15T10:24:04;100939.72;;;15.22;100.00
72560;BME280;62987;52.382;9.752;2024-02-15T10:26:36;100935.75;;;15.29;100.00
72560;BME280;62987;52.382;9.752;2024-02-15T10:29:05;100947.28;;;15.30;100.00
72560;BME280;62987;52.382;9.752;2024-02-15T10:31:38;100947.66;;;15.24;100.00
72560;BME280;62987;52.382;9.752;2024-02-15T10:34:09;100947.34;;;14.83;100.00
72560;BME280;62987;52.382;9.752;2024-02-15T10:36:41;100954.06;;;14.58;100.00
72560;BME280;62987;52.382;9.752;2024-02-15T10:39:11;100946.44;;;14.51;100.00
72560;BME280;62987;52.382;9.752;2024-02-15T10:41:50;100956.06;;;14.37;100.00
72560;BME280;62987;52.382;9.752;2024-02-15T10:44:21;100955.66;;;14.45;100.00
72560;BME280;62987;52.382;9.752;2024-02-15T10:46:51;100953.94;;;14.10;100.00
72560;BME280;62987;52.382;9.752;2024-02-15T10:49:21;100940.38;;;14.30;100.00
72560;BME280;62987;52.382;9.752;2024-02-15T10:51:55;100934.38;;;14.09;100.00
72560;BME280;62987;52.382;9.752;2024-02-15T10:54:37;100923.56;;;14.61;100.00
72560;BME280;62987;52.382;9.752;2024-02-15T10:57:11;100924.69;;;15.04;100.00
72560;BME280;62987;52.382;9.752;2024-02-15T10:59:47;100916.94;;;14.84;100.00
72560;BME280;62987;52.382;9.752;2024-02-15T11:02:29;100914.59;;;15.09;100.00
72560;BME280;62987;52.382;9.752;2024-02-15T11:05:02;100910.53;;;15.02;100.00
72560;BME280;62987;52.382;9.752;2024-02-15T11:07:32;100898.63;;;14.76;100.00
72560;BME280;62987;52.382;9.752;2024-02-15T11:10:05;100899.25;;;15.11;100.00
72560;BME280;62987;52.382;9.752;2024-02-15T11:12:39;100908.19;;;14.96;100.00
72560;BME280;62987;52.382;9.752;2024-02-15T11:15:43;100899.28;;;14.95;100.00
72560;BME280;62987;52.382;9.752;2024-02-15T11:18:42;100896.53;;;14.81;100.00
72560;BME280;62987;52.382;9.752;2024-02-15T11:21:14;100898.25;;;14.82;100.00
72560;BME280;62987;52.382;9.752;2024-02-15T11:23:43;100890.81;;;14.87;100.00
72560;BME280;62987;52.382;9.752;2024-02-15T11:26:43;100886.25;;;14.73;100.00
72560;BME280;62987;52.382;9.752;2024-02-15T11:29:50;100880.97;;;15.03;100.00
72560;BME280;62987;52.382;9.752;2024-02-15T11:32:39;100873.72;;;14.90;100.00
72560;BME280;62987;52.382;9.752;2024-02-15T11:35:12;100874.75;;;15.03;100.00
72560;BME280;62987;52.382;9.752;2024-02-15T11:37:56;100873.72;;;14.90;100.00
72560;BME280;62987;52.382;9.752;2024-02-15T11:40:59;100864.47;;;14.79;100.00
72560;BME280;62987;52.382;9.752;2024-02-15T11:43:47;100869.31;;;14.89;100.00
72560;BME280;62987;52.382;9.752;2024-02-15T11:46:26;100855.94;;;15.18;100.00
72560;BME280;62987;52.382;9.752;2024-02-15T11:48:58;100862.66;;;14.96;100.00
72560;BME280;62987;52.382;9.752;2024-02-15T11:51:30;100861.38;;;15.03;100.00
72560;BME280;62987;52.382;9.752;2024-02-15T11:54:05;100857.97;;;15.15;100.00
72560;BME280;62987;52.382;9.752;2024-02-15T11:56:52;100864.34;;;15.12;100.00
72560;BME280;62987;52.382;9.752;2024-02-15T11:59:41;100852.13;;;14.93;100.00
72560;BME280;62987;52.382;9.752;2024-02-15T12:02:31;100841.38;;;15.08;100.00
72560;BME280;62987;52.382;9.752;2024-02-15T12:05:18;100844.34;;;15.34;100.00
72560;BME280;62987;52.382;9.752;2024-02-15T12:08:05;100849.69;;;15.34;100.00
72560;BME280;62987;52.382;9.752;2024-02-15T12:10:57;100838.28;;;15.30;100.00
72560;BME280;62987;52.382;9.752;2024-02-15T12:13:43;100836.59;;;15.43;100.00
72560;BME280;62987;52.382;9.752;2024-02-15T12:16:29;100831.22;;;15.43;100.00
72560;BME280;62987;52.382;9.752;2024-02-15T12:19:13;100828.13;;;15.21;100.00
72560;BME280;62987;52.382;9.752;2024-02-15T12:21:45;100834.06;;;15.26;100.00
72560;BME280;62987;52.382;9.752;2024-02-15T12:24:14;100828.50;;;15.15;100.00
72560;BME280;62987;52.382;9.752;2024-02-15T12:26:44;100834.59;;;15.17;100.00
72560;BME280;62987;52.382;9.752;2024-02-15T12:29:16;100829.25;;;15.17;100.00
72560;BME280;62987;52.382;9.752;2024-02-15T12:31:46;100837.97;;;15.20;100.00
72560;BME280;62987;52.382;9.752;2024-02-15T12:34:20;100831.34;;;15.12;100.00
72560;BME280;62987;52.382;9.752;2024-02-15T12:36:49;100837.91;;;15.22;100.00
72560;BME280;62987;52.382;9.752;2024-02-15T12:39:24;100827.72;;;15.13;100.00
72560;BME280;62987;52.382;9.752;2024-02-15T12:41:55;100818.31;;;15.36;100.00
72560;BME280;62987;52.382;9.752;2024-02-15T12:44:24;100818.19;;;15.23;100.00
72560;BME280;62987;52.382;9.752;2024-02-15T12:46:54;100816.22;;;15.41;100.00
72560;BME280;62987;52.382;9.752;2024-02-15T12:49:30;100823.19;;;15.43;100.00
72560;BME280;62987;52.382;9.752;2024-02-15T12:52:34;100830.44;;;15.27;100.00
72560;BME280;62987;52.382;9.752;2024-02-15T12:55:11;100820.38;;;15.31;100.00
72560;BME280;62987;52.382;9.752;2024-02-15T12:57:41;100819.75;;;15.41;100.00
72560;BME280;62987;52.382;9.752;2024-02-15T13:00:12;100816.66;;;15.63;100.00
72560;BME280;62987;52.382;9.752;2024-02-15T13:02:46;100819.66;;;15.43;100.00
72560;BME280;62987;52.382;9.752;2024-02-15T13:05:18;100816.81;;;15.16;100.00